Time;durP1;ratioP1;P1;durP2;ratioP2;P2;SDS_P1;SDS_P2;PMS_P1;PMS_P2;Temp;Humidity;BMP_temperature;BMP_pressure;BME280_temperature;BME280_humidity;BME280_pressure;Samples;Min_cycle;Max_cycle;Signal;HPM_P1;HPM_P2
2022/07/02 00:00:46;;;;;;;7.50;6.00;;;;;;;15.69;68.62;101469.66;5063658;28;20021;-24
2022/07/02 00:03:15;;;;;;;9.77;6.68;;;;;;;15.69;68.52;101455.47;5065631;28;20041;-24
2022/07/02 00:05:47;;;;;;;7.90;6.30;;;;;;;15.68;68.48;101459.03;5059501;28;20020;-24
2022/07/02 00:08:13;;;;;;;8.60;6.15;;;;;;;15.68;68.51;101453.72;5067913;28;20161;-24
2022/07/02 00:10:39;;;;;;;8.45;7.05;;;;;;;15.67;68.47;101452.81;5064182;28;20107;-26
2022/07/02 00:13:05;;;;;;;6.43;5.82;;;;;;;15.66;68.50;101451.09;5047301;28;20179;-26
2022/07/02 00:15:31;;;;;;;9.35;6.85;;;;;;;15.66;68.47;101443.09;5067891;28;20024;-26
2022/07/02 00:17:56;;;;;;;9.32;7.05;;;;;;;15.67;68.49;101439.53;5064599;28;20036;-26
2022/07/02 00:20:22;;;;;;;7.47;6.53;;;;;;;15.66;68.58;101440.44;5067516;28;20024;-26
2022/07/02 00:22:47;;;;;;;11.25;7.10;;;;;;;15.64;68.47;101432.50;5067501;28;20024;-26
2022/07/02 00:25:13;;;;;;;9.00;6.50;;;;;;;15.66;68.75;101432.47;5051526;28;20021;-24
2022/07/02 00:27:40;;;;;;;8.25;7.40;;;;;;;15.66;68.48;101429.81;5071692;28;20025;-26
2022/07/02 00:30:07;;;;;;;8.30;6.57;;;;;;;15.65;68.39;101430.72;5069925;28;20077;-26
2022/07/02 00:32:33;;;;;;;9.30;7.10;;;;;;;15.63;68.48;101429.84;5069290;28;20401;-26
2022/07/02 00:35:14;;;;;;;10.82;6.93;;;;;;;15.63;68.54;101438.72;5069202;28;20028;-25
2022/07/02 00:37:39;;;;;;;10.35;7.03;;;;;;;15.62;68.57;101446.72;5066162;28;20028;-26
2022/07/02 00:40:06;;;;;;;10.60;6.72;;;;;;;15.63;68.58;101443.16;5064302;28;20036;-26
2022/07/02 00:42:34;;;;;;;10.23;7.07;;;;;;;15.61;68.63;101444.97;5068395;28;20060;-24
2022/07/02 00:45:00;;;;;;;7.55;6.85;;;;;;;15.60;68.41;101445.84;5069703;28;20021;-24
2022/07/02 00:47:27;;;;;;;8.85;7.03;;;;;;;15.59;68.59;101441.47;5068042;28;20044;-24
2022/07/02 00:49:52;;;;;;;9.68;6.80;;;;;;;15.57;68.70;101440.63;5068399;28;21577;-24
2022/07/02 00:52:17;;;;;;;8.48;7.25;;;;;;;15.57;68.73;101441.47;5065575;28;20502;-24
2022/07/02 00:54:43;;;;;;;9.55;7.40;;;;;;;15.56;68.69;101439.72;5068387;28;20074;-26
2022/07/02 00:57:08;;;;;;;9.82;7.07;;;;;;;15.55;68.48;101437.09;5070606;28;20112;-24
2022/07/02 00:59:34;;;;;;;11.00;6.65;;;;;;;15.52;68.64;101441.59;5063249;28;20365;-27
2022/07/02 01:02:00;;;;;;;10.75;7.20;;;;;;;15.52;68.80;101444.25;5050455;28;20534;-24
2022/07/02 01:04:31;;;;;;;9.15;7.13;;;;;;;15.49;68.88;101448.72;5067435;28;20025;-24
2022/07/02 01:07:15;;;;;;;12.13;7.13;;;;;;;15.47;68.65;101445.22;5064507;28;20025;-24
2022/07/02 01:12:30;;;;;;;7.60;6.85;;;;;;;15.43;68.72;101440.84;5068340;28;20051;-24
2022/07/02 01:14:57;;;;;;;7.70;6.88;;;;;;;15.42;68.74;101439.97;5066874;28;20467;-24
2022/07/02 01:17:23;;;;;;;10.98;7.05;;;;;;;15.39;68.66;101443.56;5065607;28;20451;-24
2022/07/02 01:19:49;;;;;;;9.18;7.38;;;;;;;15.39;68.76;101450.66;5066150;28;20028;-24
2022/07/02 01:22:22;;;;;;;11.00;7.43;;;;;;;15.35;68.73;101436.56;5065767;28;20040;-24
2022/07/02 01:24:50;;;;;;;10.65;7.22;;;;;;;15.35;68.84;101448.97;5047875;28;20948;-24
2022/07/02 01:27:18;;;;;;;7.57;6.53;;;;;;;15.35;68.83;101440.97;5070864;28;20028;-24
2022/07/02 01:29:45;;;;;;;7.63;6.70;;;;;;;15.32;68.89;101446.34;5027338;28;20028;-24
2022/07/02 01:32:11;;;;;;;7.03;6.35;;;;;;;15.30;68.67;101443.72;5084171;28;20082;-25
2022/07/02 01:34:39;;;;;;;8.57;6.97;;;;;;;15.29;68.61;101451.72;5064542;28;20033;-24
2022/07/02 01:37:08;;;;;;;9.15;6.50;;;;;;;15.25;68.74;101451.75;5064257;28;20033;-24
2022/07/02 01:39:34;;;;;;;9.65;6.97;;;;;;;15.23;68.71;101458.88;5069873;28;20024;-24
2022/07/02 01:42:00;;;;;;;7.63;6.45;;;;;;;15.22;68.95;101456.25;5069349;28;20384;-25
2022/07/02 01:44:25;;;;;;;9.80;6.30;;;;;;;15.18;68.78;101450.13;5070755;28;20365;-24
2022/07/02 01:46:50;;;;;;;10.77;7.35;;;;;;;15.16;68.94;101446.59;5066876;28;20082;-24
2022/07/02 01:49:16;;;;;;;9.77;6.72;;;;;;;15.13;68.75;101459.94;5068543;28;20063;-24
2022/07/02 01:51:41;;;;;;;8.32;7.05;;;;;;;15.10;68.51;101458.19;5038602;28;20108;-24
2022/07/02 01:54:08;;;;;;;8.55;6.53;;;;;;;15.07;68.62;101463.56;5068255;28;20605;-24
2022/07/02 01:56:34;;;;;;;7.75;7.03;;;;;;;15.05;68.79;101457.41;5047058;28;20032;-24
2022/07/02 01:59:00;;;;;;;7.50;6.68;;;;;;;15.04;68.87;101470.72;5067201;28;20029;-24
2022/07/02 02:01:26;;;;;;;9.30;6.57;;;;;;;15.01;68.83;101472.50;5069723;28;20036;-24
2022/07/02 02:03:53;;;;;;;7.80;7.07;;;;;;;14.98;68.99;101469.03;5064216;28;20020;-24
2022/07/02 02:06:19;;;;;;;10.15;7.00;;;;;;;14.96;68.94;101476.13;5047507;28;20020;-24
2022/07/02 02:08:44;;;;;;;8.60;6.90;;;;;;;14.94;68.89;101481.44;5058223;28;20495;-24
2022/07/02 02:11:10;;;;;;;9.20;7.18;;;;;;;14.91;68.92;101475.31;5066225;28;20052;-24
2022/07/02 02:13:36;;;;;;;11.80;6.35;;;;;;;14.90;68.77;101481.53;5070263;28;20039;-24
2022/07/02 02:16:01;;;;;;;7.68;6.97;;;;;;;14.87;68.83;101488.63;5065472;28;20032;-24
2022/07/02 02:18:26;;;;;;;8.68;7.10;;;;;;;14.85;69.05;101497.53;5067179;28;20117;-24
2022/07/02 02:20:52;;;;;;;10.18;6.43;;;;;;;14.81;68.91;101498.47;5067754;28;20495;-24
2022/07/02 02:23:17;;;;;;;8.55;6.50;;;;;;;14.79;68.94;101494.94;5065655;28;20037;-28
2022/07/02 02:25:42;;;;;;;8.80;6.97;;;;;;;14.75;69.01;101499.41;5067223;28;20025;-24
2022/07/02 02:28:08;;;;;;;8.93;6.65;;;;;;;14.72;68.93;101500.31;5068838;28;20021;-24
2022/07/02 02:30:33;;;;;;;9.48;6.43;;;;;;;14.70;68.61;101499.44;5064704;28;20020;-24
2022/07/02 02:32:59;;;;;;;7.43;6.55;;;;;;;14.68;69.04;101498.63;5063891;28;20062;-24
2022/07/02 02:35:24;;;;;;;9.77;7.05;;;;;;;14.66;69.02;101500.41;5068268;28;20063;-24
2022/07/02 02:37:49;;;;;;;7.78;6.88;;;;;;;14.63;68.74;101503.09;5070588;28;20047;-24
2022/07/02 02:40:15;;;;;;;9.00;6.50;;;;;;;14.61;68.91;101504.91;5067739;28;20408;-24
2022/07/02 02:42:40;;;;;;;9.50;7.00;;;;;;;14.58;68.83;101511.09;5045622;28;20479;-24
2022/07/02 02:45:06;;;;;;;8.40;6.65;;;;;;;14.56;69.12;101512.03;5063458;28;20021;-24
2022/07/02 02:47:32;;;;;;;9.15;6.78;;;;;;;14.55;68.96;101512.94;5068220;28;20067;-24
2022/07/02 02:49:57;;;;;;;10.95;6.82;;;;;;;14.50;69.09;101505.91;5063681;28;20025;-24
2022/07/02 02:52:22;;;;;;;9.00;6.95;;;;;;;14.49;68.77;101511.22;5066128;28;20075;-24
2022/07/02 02:54:47;;;;;;;8.55;6.15;;;;;;;14.47;69.05;101511.25;5066798;28;20024;-24
2022/07/02 02:57:13;;;;;;;9.27;7.07;;;;;;;14.43;69.00;101517.50;5063139;28;20039;-24
2022/07/02 02:59:38;;;;;;;8.13;6.32;;;;;;;14.40;69.04;101514.00;5064613;28;20029;-24
2022/07/02 03:02:04;;;;;;;11.00;6.35;;;;;;;14.37;68.93;101509.59;5066475;28;20025;-24
2022/07/02 03:04:29;;;;;;;9.50;6.13;;;;;;;14.36;68.97;101513.13;5063304;28;20060;-26
2022/07/02 03:06:55;;;;;;;8.52;6.40;;;;;;;14.35;68.95;101517.59;5065722;28;20036;-25
2022/07/02 03:09:22;;;;;;;9.77;7.05;;;;;;;14.31;69.02;101517.63;5065844;28;20496;-24
2022/07/02 03:11:47;;;;;;;9.43;6.57;;;;;;;14.29;69.19;101522.06;5061353;28;20032;-24
2022/07/02 03:14:13;;;;;;;9.20;5.90;;;;;;;14.24;69.03;101520.34;5066166;28;20096;-24
2022/07/02 03:16:38;;;;;;;7.30;6.00;;;;;;;14.22;68.87;101522.16;5048685;28;20031;-24
2022/07/02 03:19:03;;;;;;;11.10;6.93;;;;;;;14.23;69.11;101528.31;5062383;28;20107;-24
2022/07/02 03:21:28;;;;;;;10.00;6.43;;;;;;;14.20;69.01;101534.53;5061812;28;20033;-24
2022/07/02 03:23:54;;;;;;;12.05;5.60;;;;;;;14.18;68.90;101539.00;5066034;28;20056;-24
2022/07/02 03:26:19;;;;;;;7.65;6.50;;;;;;;14.18;69.06;101541.66;5067048;28;20056;-24
2022/07/02 03:28:45;;;;;;;7.63;5.75;;;;;;;14.14;69.09;101545.19;5043004;28;20021;-24
2022/07/02 03:31:10;;;;;;;7.63;6.32;;;;;;;14.11;68.81;101540.81;5042384;28;20500;-24
2022/07/02 03:33:35;;;;;;;13.90;6.72;;;;;;;14.10;68.87;101540.81;5064333;28;20059;-24
2022/07/02 03:36:01;;;;;;;11.13;6.53;;;;;;;14.07;69.17;101539.09;5066673;28;20024;-24
2022/07/02 03:38:27;;;;;;;10.00;6.43;;;;;;;14.05;68.99;101538.25;5057055;28;20028;-24
2022/07/02 03:40:52;;;;;;;9.07;6.78;;;;;;;14.03;69.14;101536.47;5067357;28;20485;-24
2022/07/02 03:43:17;;;;;;;9.75;7.28;;;;;;;14.03;68.99;101544.44;5064935;28;20032;-24
2022/07/02 03:45:43;;;;;;;10.77;7.07;;;;;;;14.02;68.99;101546.22;5063352;28;20048;-24
2022/07/02 03:48:08;;;;;;;7.32;6.18;;;;;;;14.00;69.02;101541.84;5070933;28;20485;-24
2022/07/02 03:50:38;;;;;;;10.88;6.47;;;;;;;13.97;68.79;101559.53;5065026;28;20163;-24
2022/07/02 03:53:04;;;;;;;6.18;5.50;;;;;;;13.96;69.05;101544.50;5069061;28;20071;-24
2022/07/02 03:55:29;;;;;;;7.63;5.85;;;;;;;13.94;69.12;101554.22;5071545;28;20036;-24
2022/07/02 03:57:55;;;;;;;10.68;6.10;;;;;;;13.94;68.95;101556.03;5070130;28;20032;-24
2022/07/02 04:00:20;;;;;;;7.85;5.57;;;;;;;13.93;69.13;101551.59;5071080;28;20067;-24
2022/07/02 04:02:45;;;;;;;10.93;6.43;;;;;;;13.91;69.00;101558.69;5071047;28;20392;-24
2022/07/02 04:05:11;;;;;;;12.68;6.60;;;;;;;13.92;68.94;101557.81;5064680;28;20039;-25
2022/07/02 04:07:36;;;;;;;7.57;5.47;;;;;;;13.91;69.00;101564.88;5071784;28;20115;-24
2022/07/02 04:10:02;;;;;;;8.25;5.68;;;;;;;13.91;69.31;101558.69;5068990;28;20047;-24
2022/07/02 04:12:27;;;;;;;9.82;6.00;;;;;;;13.92;69.08;101556.03;5046906;28;20025;-24
2022/07/02 04:14:53;;;;;;;8.93;5.50;;;;;;;13.92;69.27;101561.34;5067953;28;20059;-24
2022/07/02 04:17:18;;;;;;;7.45;5.55;;;;;;;13.90;68.90;101563.13;5071057;28;20063;-24
2022/07/02 04:19:43;;;;;;;6.85;5.30;;;;;;;13.91;69.14;101562.22;5068396;28;20054;-24
2022/07/02 04:22:09;;;;;;;8.32;5.88;;;;;;;13.92;69.15;101564.00;5067537;28;20484;-26
2022/07/02 04:24:36;;;;;;;6.50;4.78;;;;;;;13.95;69.03;101560.44;5067372;28;20033;-24
2022/07/02 04:27:01;;;;;;;7.50;4.57;;;;;;;14.00;69.08;101568.34;5068947;28;20059;-24
2022/07/02 04:29:27;;;;;;;5.95;5.13;;;;;;;14.02;69.20;101574.50;5071918;28;20056;-24
2022/07/02 04:31:52;;;;;;;9.88;5.95;;;;;;;14.03;69.15;101577.16;5070091;28;20400;-24
2022/07/02 04:34:17;;;;;;;9.18;5.25;;;;;;;14.09;68.86;101570.91;5058529;28;20052;-26
2022/07/02 04:36:43;;;;;;;6.57;5.72;;;;;;;14.13;69.06;101569.97;5070445;28;20388;-25
2022/07/02 04:39:08;;;;;;;8.18;5.20;;;;;;;14.21;68.98;101577.88;5069245;28;20056;-26
2022/07/02 04:41:33;;;;;;;7.10;5.22;;;;;;;14.15;69.13;101570.84;5069245;28;20052;-25
2022/07/02 04:43:59;;;;;;;12.27;5.80;;;;;;;14.18;69.21;101570.84;5064066;28;20424;-26
2022/07/02 04:46:24;;;;;;;9.55;5.72;;;;;;;14.22;69.24;101575.22;5067459;28;20126;-26
2022/07/02 04:48:50;;;;;;;12.93;6.32;;;;;;;14.26;69.29;101578.69;5066859;28;20029;-25
2022/07/02 04:51:17;;;;;;;5.72;5.00;;;;;;;14.32;69.19;101586.59;5068938;28;20021;-26
2022/07/02 04:53:42;;;;;;;7.38;4.93;;;;;;;14.37;69.24;101589.19;5070605;28;20055;-26
2022/07/02 04:56:08;;;;;;;7.78;4.70;;;;;;;14.40;69.23;101589.16;5067089;28;20060;-26
2022/07/02 04:58:33;;;;;;;7.50;4.60;;;;;;;14.44;69.31;101590.03;5049683;28;20031;-25
2022/07/02 05:00:58;;;;;;;6.53;5.20;;;;;;;14.49;69.16;101596.16;5065955;28;20119;-26
2022/07/02 05:03:24;;;;;;;6.28;5.68;;;;;;;14.54;69.07;101591.66;5069565;28;20411;-26
2022/07/02 05:05:49;;;;;;;6.53;4.85;;;;;;;14.61;69.23;101592.50;5064456;28;20071;-25
2022/07/02 05:08:14;;;;;;;5.28;4.78;;;;;;;14.65;69.48;101596.88;5068768;28;20494;-26
2022/07/02 05:10:40;;;;;;;5.68;4.78;;;;;;;14.71;69.04;101602.09;5069157;28;20035;-26
2022/07/02 05:13:05;;;;;;;6.03;4.80;;;;;;;14.79;69.15;101601.16;5067544;28;20039;-26
2022/07/02 05:15:31;;;;;;;6.60;4.97;;;;;;;14.84;69.35;101602.00;5067323;28;20079;-25
2022/07/02 05:17:56;;;;;;;5.93;5.32;;;;;;;14.90;69.19;101596.59;5066051;28;20043;-26
2022/07/02 05:20:22;;;;;;;5.38;4.88;;;;;;;14.96;69.32;101598.31;5043877;28;20078;-26
2022/07/02 05:22:48;;;;;;;7.03;5.13;;;;;;;15.01;69.35;101596.50;5067333;28;20021;-26
2022/07/02 05:25:13;;;;;;;4.78;4.38;;;;;;;15.08;69.48;101603.47;5069303;28;20025;-26
2022/07/02 05:27:39;;;;;;;6.28;4.72;;;;;;;15.13;69.60;101608.72;5069078;28;20107;-25
2022/07/02 05:30:05;;;;;;;5.05;4.38;;;;;;;15.19;71.14;101621.94;5067487;28;20396;-25
2022/07/02 05:32:30;;;;;;;6.65;5.13;;;;;;;15.24;71.41;101624.53;5064735;28;20121;-25
2022/07/02 05:34:55;;;;;;;5.00;4.53;;;;;;;15.31;70.91;101625.31;5067379;28;20078;-26
2022/07/02 05:37:21;;;;;;;6.97;5.05;;;;;;;15.34;71.72;101626.13;5070060;28;20027;-26
2022/07/02 05:39:46;;;;;;;5.50;4.80;;;;;;;15.40;70.56;101627.84;5068674;28;20024;-26
2022/07/02 05:42:12;;;;;;;8.65;5.53;;;;;;;15.48;71.19;101617.97;5062882;28;20154;-26
2022/07/02 05:44:37;;;;;;;6.07;4.82;;;;;;;15.54;69.92;101626.78;5065221;28;20432;-26
2022/07/02 05:47:03;;;;;;;5.45;4.93;;;;;;;15.61;69.94;101628.44;5070793;28;20035;-26
2022/07/02 05:49:28;;;;;;;4.57;4.18;;;;;;;15.70;69.39;101633.59;5068655;28;20021;-25
2022/07/02 05:51:53;;;;;;;5.63;4.40;;;;;;;15.77;69.35;101637.94;5065525;28;20115;-26
2022/07/02 05:54:19;;;;;;;4.38;4.03;;;;;;;15.84;69.48;101635.19;5068979;28;20067;-25
2022/07/02 05:56:44;;;;;;;4.97;4.53;;;;;;;15.91;69.16;101631.53;5066160;28;20376;-26
2022/07/02 05:59:09;;;;;;;4.80;4.00;;;;;;;15.99;69.35;101628.75;5068636;28;20051;-26
2022/07/02 06:01:35;;;;;;;8.40;4.93;;;;;;;16.05;70.26;101638.44;5067353;28;20020;-26
2022/07/02 06:04:00;;;;;;;4.78;4.25;;;;;;;16.14;70.38;101635.63;5062676;28;20074;-25
2022/07/02 06:09:09;;;;;;;5.25;4.55;;;;;;;16.28;70.38;101630.06;5064081;28;20456;-26
2022/07/02 06:11:35;;;;;;;4.57;4.18;;;;;;;16.35;70.15;101636.13;5066655;28;20107;-26
2022/07/02 06:14:00;;;;;;;4.70;4.30;;;;;;;16.42;70.16;101629.81;5063516;28;20078;-26
2022/07/02 06:16:27;;;;;;;5.07;4.03;;;;;;;16.52;69.58;101628.72;5058557;28;20393;-25
2022/07/02 06:18:53;;;;;;;4.25;3.83;;;;;;;16.61;69.87;101629.47;5067620;28;20036;-26
2022/07/02 06:21:18;;;;;;;4.30;3.90;;;;;;;16.69;70.10;101638.19;5065422;28;20056;-26
2022/07/02 06:23:43;;;;;;;4.05;3.65;;;;;;;16.78;69.26;101637.13;5066465;28;20032;-26
2022/07/02 06:26:09;;;;;;;5.68;4.05;;;;;;;16.89;68.98;101642.22;5061822;28;20024;-26
2022/07/02 06:28:34;;;;;;;3.63;3.30;;;;;;;16.98;69.47;101639.38;5066036;28;20051;-26
2022/07/02 06:30:59;;;;;;;5.95;4.10;;;;;;;17.07;69.40;101634.81;5068438;28;20133;-26
2022/07/02 06:33:25;;;;;;;4.32;3.22;;;;;;;17.18;69.57;101638.13;5062182;28;20438;-26
2022/07/02 06:35:50;;;;;;;4.13;3.83;;;;;;;17.26;69.63;101636.16;5066061;28;20055;-26
2022/07/02 06:38:15;;;;;;;3.63;3.20;;;;;;;17.37;69.61;101640.38;5066381;28;20020;-26
2022/07/02 06:40:41;;;;;;;3.83;3.53;;;;;;;17.48;69.71;101640.13;5067593;28;20547;-25
2022/07/02 06:43:06;;;;;;;4.93;3.92;;;;;;;17.57;68.81;101632.78;5065537;28;20025;-26
2022/07/02 06:45:32;;;;;;;5.22;3.47;;;;;;;17.70;69.61;101641.38;5067210;28;20024;-26
2022/07/02 06:47:58;;;;;;;4.13;3.83;;;;;;;17.81;69.76;101637.59;5063336;28;20099;-26
2022/07/02 06:50:23;;;;;;;3.92;3.40;;;;;;;17.91;69.31;101632.91;5065152;28;20044;-26
2022/07/02 06:52:49;;;;;;;4.40;4.00;;;;;;;18.02;68.82;101637.97;5064831;28;20029;-26
2022/07/02 06:55:14;;;;;;;4.15;3.53;;;;;;;18.12;69.02;101644.88;5062054;28;20024;-26
2022/07/02 06:57:40;;;;;;;4.90;3.85;;;;;;;18.24;69.76;101643.66;5067806;28;20472;-27
2022/07/02 07:00:06;;;;;;;4.78;3.95;;;;;;;18.37;68.88;101646.03;5064154;28;20025;-26
2022/07/02 07:02:32;;;;;;;4.32;3.80;;;;;;;18.46;68.55;101648.44;5063972;28;20028;-26
2022/07/02 07:04:57;;;;;;;3.67;3.38;;;;;;;18.53;68.61;101644.69;5062169;28;20020;-26
2022/07/02 07:07:29;;;;;;;4.43;3.97;;;;;;;18.63;68.64;101637.28;5060894;28;20063;-26
2022/07/02 07:09:55;;;;;;;4.72;4.32;;;;;;;18.74;68.43;101639.66;5063433;28;20020;-26
2022/07/02 07:12:21;;;;;;;4.10;3.80;;;;;;;18.89;68.43;101641.03;5064737;28;20447;-26
2022/07/02 07:14:46;;;;;;;5.68;4.28;;;;;;;19.00;68.18;101646.06;5067976;28;20073;-26
2022/07/02 07:17:11;;;;;;;5.22;4.60;;;;;;;19.13;68.09;101648.41;5069127;28;20500;-26
2022/07/02 07:19:37;;;;;;;4.78;4.25;;;;;;;19.23;67.34;101649.88;5068586;28;20078;-26
2022/07/02 07:22:02;;;;;;;7.50;5.10;;;;;;;19.33;67.38;101648.69;5065937;28;20036;-26
2022/07/02 07:24:28;;;;;;;5.05;4.57;;;;;;;19.44;66.92;101652.84;5063398;28;20111;-26
2022/07/02 07:26:53;;;;;;;4.40;4.00;;;;;;;19.55;66.81;101648.03;5068783;28;20017;-26
2022/07/02 07:29:19;;;;;;;5.15;4.65;;;;;;;19.70;67.21;101645.75;5067901;28;20056;-26
2022/07/02 07:31:44;;;;;;;5.30;4.90;;;;;;;19.79;66.77;101645.50;5067274;28;20538;-26
2022/07/02 07:34:10;;;;;;;4.90;4.50;;;;;;;19.92;66.47;101655.78;5067952;28;20029;-26
2022/07/02 07:36:35;;;;;;;4.72;4.28;;;;;;;20.05;66.61;101656.28;5066228;28;20031;-26
2022/07/02 07:39:02;;;;;;;5.32;4.10;;;;;;;20.17;66.60;101649.66;5066155;28;20068;-24
2022/07/02 07:41:28;;;;;;;4.72;3.75;;;;;;;20.29;65.93;101653.69;5062851;28;20055;-24
2022/07/02 07:43:53;;;;;;;4.07;3.67;;;;;;;20.40;65.69;101650.66;5062514;28;20275;-24
2022/07/02 07:46:19;;;;;;;5.38;4.15;;;;;;;20.51;65.31;101649.34;5063836;28;20040;-24
2022/07/02 07:48:45;;;;;;;4.25;3.95;;;;;;;20.63;65.81;101656.06;5066424;28;20027;-26
2022/07/02 07:51:10;;;;;;;5.05;3.70;;;;;;;20.74;65.14;101646.78;5067623;28;20024;-26
2022/07/02 07:53:35;;;;;;;4.75;4.32;;;;;;;20.88;64.69;101652.50;5067405;28;20021;-24
2022/07/02 07:56:01;;;;;;;4.88;4.07;;;;;;;21.02;64.17;101659.19;5066974;28;20048;-24
2022/07/02 07:58:26;;;;;;;4.32;3.80;;;;;;;21.14;64.63;101647.97;5066514;28;20112;-24
2022/07/02 08:00:52;;;;;;;4.13;3.83;;;;;;;21.28;63.67;101652.81;5068716;28;20028;-24
2022/07/02 08:03:18;;;;;;;4.03;3.35;;;;;;;21.44;64.56;101651.34;5064363;28;20024;-24
2022/07/02 08:05:46;;;;;;;4.82;3.67;;;;;;;21.57;64.37;101643.69;5063783;28;20382;-24
2022/07/02 08:08:12;;;;;;;3.40;2.67;;;;;;;21.69;64.12;101653.91;5066034;28;20034;-26
2022/07/02 08:10:38;;;;;;;4.90;3.53;;;;;;;21.85;64.50;101656.88;5048970;28;20025;-26
2022/07/02 08:13:03;;;;;;;4.55;3.17;;;;;;;21.97;62.87;101660.00;5067873;28;20027;-26
2022/07/02 08:15:28;;;;;;;3.63;3.15;;;;;;;22.04;62.20;101659.66;5065190;28;20028;-26
2022/07/02 08:17:54;;;;;;;3.28;3.03;;;;;;;22.14;62.81;101644.03;5067814;28;20070;-26
2022/07/02 08:20:20;;;;;;;4.45;3.10;;;;;;;22.28;62.72;101647.94;5068293;28;20032;-24
2022/07/02 08:22:46;;;;;;;3.15;2.60;;;;;;;22.34;61.85;101655.72;5061426;28;20029;-24
2022/07/02 08:25:13;;;;;;;2.83;2.63;;;;;;;22.45;63.27;101651.69;5065616;28;20059;-24
2022/07/02 08:27:39;;;;;;;2.70;2.50;;;;;;;22.57;61.78;101643.13;5068995;28;20073;-25
2022/07/02 08:30:05;;;;;;;3.05;2.85;;;;;;;22.67;61.47;101641.75;5072761;28;20278;-25
2022/07/02 08:32:31;;;;;;;2.92;2.70;;;;;;;22.75;60.57;101633.38;5064061;28;20024;-25
2022/07/02 08:34:57;;;;;;;3.63;2.67;;;;;;;22.88;59.51;101649.78;5070681;28;20423;-24
2022/07/02 08:37:22;;;;;;;2.40;2.20;;;;;;;22.97;58.45;101648.50;5069298;28;20816;-24
2022/07/02 08:39:48;;;;;;;3.20;2.50;;;;;;;23.09;58.98;101646.19;5072797;28;20021;-24
2022/07/02 08:42:24;;;;;;;4.07;2.58;;;;;;;23.22;60.05;101651.84;5065246;28;20043;-24
2022/07/02 08:44:52;;;;;;;3.47;2.35;;;;;;;23.31;60.36;101646.06;5060652;28;20021;-24
2022/07/02 08:47:18;;;;;;;2.70;2.50;;;;;;;23.42;60.69;101649.13;5071960;28;20028;-26
2022/07/02 08:49:45;;;;;;;2.45;2.25;;;;;;;23.53;58.96;101653.09;5066880;28;20353;-24
2022/07/02 08:52:12;;;;;;;2.13;1.98;;;;;;;23.61;59.19;101641.97;5046783;28;20032;-24
2022/07/02 08:54:37;;;;;;;2.42;2.10;;;;;;;23.71;59.18;101649.50;5065329;28;20032;-24
2022/07/02 08:57:04;;;;;;;2.35;2.15;;;;;;;23.86;60.84;101652.41;5051720;28;20035;-24
2022/07/02 08:59:30;;;;;;;2.17;2.08;;;;;;;23.98;58.56;101645.53;5066478;28;20028;-24
2022/07/02 09:01:55;;;;;;;2.53;2.33;;;;;;;24.08;58.57;101651.31;5071249;28;20036;-24
2022/07/02 09:04:22;;;;;;;4.82;2.20;;;;;;;24.34;57.74;101654.53;5069467;28;20405;-24
2022/07/02 09:06:49;;;;;;;4.05;2.08;;;;;;;24.45;58.41;101649.41;5067991;28;20028;-24
2022/07/02 09:09:16;;;;;;;1.85;1.75;;;;;;;24.55;59.40;101657.03;5068618;28;20377;-24
2022/07/02 09:11:41;;;;;;;2.00;1.60;;;;;;;24.71;57.63;101643.63;5071326;28;20058;-24
2022/07/02 09:14:07;;;;;;;1.90;1.65;;;;;;;24.73;57.09;101641.69;5072156;28;20028;-24
2022/07/02 09:16:33;;;;;;;4.07;2.10;;;;;;;24.94;57.00;101652.31;5066390;28;20455;-24
2022/07/02 09:18:59;;;;;;;1.60;1.50;;;;;;;25.03;56.16;101651.81;5070794;28;20074;-24
2022/07/02 09:21:24;;;;;;;2.92;1.60;;;;;;;25.03;56.57;101648.22;5069241;28;20393;-24
2022/07/02 09:23:52;;;;;;;1.83;1.73;;;;;;;25.04;57.05;101639.19;5068802;28;20438;-24
2022/07/02 09:26:19;;;;;;;2.65;1.65;;;;;;;25.12;55.97;101642.31;5068183;28;20042;-24
2022/07/02 09:28:55;;;;;;;2.05;1.70;;;;;;;25.22;55.58;101642.69;5070757;28;20025;-24
2022/07/02 09:31:20;;;;;;;1.75;1.50;;;;;;;25.39;56.01;101647.13;5072225;28;20024;-24
2022/07/02 09:33:45;;;;;;;1.70;1.60;;;;;;;25.49;54.83;101642.06;5070764;28;20021;-24
2022/07/02 09:36:12;;;;;;;2.88;1.80;;;;;;;25.50;53.83;101636.59;5066432;28;20282;-24
2022/07/02 09:38:51;;;;;;;2.55;1.75;;;;;;;25.58;54.32;101633.47;5066326;28;20029;-24
2022/07/02 09:41:21;;;;;;;1.65;1.55;;;;;;;25.57;53.71;101633.53;5063298;28;20472;-25
2022/07/02 09:44:02;;;;;;;1.60;1.50;;;;;;;25.64;53.10;101621.44;5063671;28;20040;-24
2022/07/02 09:46:29;;;;;;;3.72;1.80;;;;;;;25.71;53.67;101625.50;5068771;28;20028;-24
2022/07/02 09:49:06;;;;;;;1.60;1.50;;;;;;;25.87;52.82;101619.19;5071583;28;20040;-24
2022/07/02 09:51:31;;;;;;;2.47;1.50;;;;;;;25.84;52.58;101622.97;5067918;28;20035;-25
2022/07/02 09:53:57;;;;;;;2.33;2.03;;;;;;;25.86;53.66;101612.06;5071526;28;20024;-24
2022/07/02 09:56:23;;;;;;;2.90;1.67;;;;;;;25.89;54.96;101617.28;5068467;28;20507;-24
2022/07/02 09:58:49;;;;;;;1.60;1.50;;;;;;;26.01;52.74;101613.84;5065600;28;20362;-24
2022/07/02 10:01:19;;;;;;;1.40;1.30;;;;;;;26.07;52.01;101604.50;5068813;28;20051;-24
2022/07/02 10:03:49;;;;;;;1.60;1.48;;;;;;;26.16;53.11;101605.78;5067780;28;20029;-24
2022/07/02 10:06:14;;;;;;;1.95;1.58;;;;;;;26.20;51.57;101607.34;5067395;28;20036;-24
2022/07/02 10:08:40;;;;;;;1.55;1.45;;;;;;;26.30;52.72;101609.53;5071002;28;20028;-26
2022/07/02 10:11:06;;;;;;;1.58;1.48;;;;;;;26.34;52.78;101598.41;5067100;28;20024;-26
2022/07/02 10:13:32;;;;;;;1.30;1.30;;;;;;;26.48;51.55;101602.94;5070118;28;20023;-26
2022/07/02 10:16:03;;;;;;;2.78;1.50;;;;;;;26.50;51.45;101598.31;5065417;28;20039;-26
2022/07/02 10:18:28;;;;;;;2.05;1.50;;;;;;;26.58;50.12;101603.28;5066531;28;20109;-26
2022/07/02 10:20:56;;;;;;;3.65;1.33;;;;;;;26.56;49.62;101591.66;5069183;28;20074;-26
2022/07/02 10:23:23;;;;;;;2.58;1.67;;;;;;;26.52;50.00;101600.94;5071126;28;20075;-27
2022/07/02 10:25:48;;;;;;;2.58;1.50;;;;;;;26.49;50.10;101601.13;5071110;28;20376;-27
2022/07/02 10:28:14;;;;;;;2.08;1.25;;;;;;;26.51;50.45;101591.94;5060150;28;20537;-27
2022/07/02 10:30:40;;;;;;;1.75;1.65;;;;;;;26.51;49.18;101594.66;5067974;28;20024;-26
2022/07/02 10:33:41;;;;;;;1.52;1.20;;;;;;;26.51;48.36;101588.38;5050316;28;20035;-26
2022/07/02 10:36:10;;;;;;;1.60;1.50;;;;;;;26.56;47.76;101586.25;5064105;28;20033;-27
2022/07/02 10:38:39;;;;;;;2.22;1.83;;;;;;;26.65;48.42;101582.09;5050987;28;20024;-26
2022/07/02 10:41:06;;;;;;;3.78;1.35;;;;;;;26.73;50.45;101581.59;5067953;28;20036;-26
2022/07/02 10:43:33;;;;;;;1.45;1.35;;;;;;;26.81;49.58;101581.13;5067064;28;20024;-26
2022/07/02 10:46:04;;;;;;;1.08;1.00;;;;;;;26.86;48.52;101581.69;5069649;28;20027;-26
2022/07/02 10:48:30;;;;;;;1.23;1.13;;;;;;;26.88;48.83;101574.34;5068838;28;20054;-26
2022/07/02 10:50:57;;;;;;;1.60;1.50;;;;;;;26.94;48.70;101573.09;5069103;28;20559;-26
2022/07/02 10:53:24;;;;;;;1.50;1.40;;;;;;;27.07;50.98;101570.47;5066182;28;20560;-26
2022/07/02 10:55:52;;;;;;;1.85;1.27;;;;;;;27.11;46.69;101572.03;5067138;28;20078;-26
2022/07/02 10:58:22;;;;;;;3.83;1.23;;;;;;;27.22;45.96;101572.19;5069160;28;20181;-26
2022/07/02 11:00:48;;;;;;;2.88;1.30;;;;;;;27.20;47.65;101562.44;5066752;28;20036;-26
2022/07/02 11:03:24;;;;;;;1.33;1.00;;;;;;;27.18;46.47;101551.69;5066796;28;20416;-26
2022/07/02 11:06:00;;;;;;;1.65;1.55;;;;;;;27.23;46.65;101552.25;5065316;28;20012;-27
2022/07/02 11:08:41;;;;;;;1.23;1.13;;;;;;;27.30;46.74;101552.69;5067095;28;20086;-27
2022/07/02 11:11:07;;;;;;;1.20;1.00;;;;;;;27.37;46.19;101553.19;5066836;28;20028;-26
2022/07/02 11:13:40;;;;;;;1.70;1.20;;;;;;;27.45;46.19;101544.53;5069459;28;20858;-27
2022/07/02 11:16:22;;;;;;;2.35;1.20;;;;;;;27.48;45.16;101545.16;5066055;28;20079;-27
2022/07/02 11:18:48;;;;;;;1.00;0.90;;;;;;;27.53;45.53;101547.56;5070757;28;20063;-26
2022/07/02 11:21:13;;;;;;;2.35;1.20;;;;;;;27.59;45.80;101554.41;5066787;28;20036;-26
2022/07/02 11:23:40;;;;;;;0.95;0.95;;;;;;;27.65;46.50;101546.75;5069534;28;20077;-26
2022/07/02 11:26:05;;;;;;;2.50;1.48;;;;;;;27.70;43.71;101549.16;5046351;28;20029;-26